sensor_id;sensor_type;location;lat;lon;timestamp;P1;durP1;ratioP1;P2;durP2;ratioP2
13969;SDS011;7057;49.984;8.404;2022-09-13T00:02:19;7.33;;;5.53;;
13969;SDS011;7057;49.984;8.404;2022-09-13T00:04:46;7.97;;;5.90;;
13969;SDS011;7057;49.984;8.404;2022-09-13T00:07:14;7.40;;;5.60;;
13969;SDS011;7057;49.984;8.404;2022-09-13T00:09:41;7.83;;;5.97;;
13969;SDS011;7057;49.984;8.404;2022-09-13T00:12:08;9.83;;;5.50;;
13969;SDS011;7057;49.984;8.404;2022-09-13T00:14:35;7.10;;;5.87;;
13969;SDS011;7057;49.984;8.404;2022-09-13T00:17:02;6.10;;;5.50;;
13969;SDS011;7057;49.984;8.404;2022-09-13T00:19:31;7.07;;;5.93;;
13969;SDS011;7057;49.984;8.404;2022-09-13T00:21:58;8.90;;;5.97;;
13969;SDS011;7057;49.984;8.404;2022-09-13T00:24:25;6.90;;;5.47;;
13969;SDS011;7057;49.984;8.404;2022-09-13T00:26:52;9.43;;;5.83;;
13969;SDS011;7057;49.984;8.404;2022-09-13T00:29:20;8.03;;;5.50;;
13969;SDS011;7057;49.984;8.404;2022-09-13T00:31:47;8.10;;;5.83;;
13969;SDS011;7057;49.984;8.404;2022-09-13T00:34:14;6.93;;;5.53;;
13969;SDS011;7057;49.984;8.404;2022-09-13T00:36:42;8.17;;;5.37;;
13969;SDS011;7057;49.984;8.404;2022-09-13T00:39:09;8.77;;;5.53;;
13969;SDS011;7057;49.984;8.404;2022-09-13T00:41:37;7.67;;;5.60;;
13969;SDS011;7057;49.984;8.404;2022-09-13T00:44:04;9.37;;;7.00;;
13969;SDS011;7057;49.984;8.404;2022-09-13T00:46:51;6.80;;;6.00;;
13969;SDS011;7057;49.984;8.404;2022-09-13T00:49:19;6.73;;;6.03;;
13969;SDS011;7057;49.984;8.404;2022-09-13T00:51:51;8.07;;;5.80;;
13969;SDS011;7057;49.984;8.404;2022-09-13T00:54:23;12.23;;;6.23;;
13969;SDS011;7057;49.984;8.404;2022-09-13T00:56:53;7.73;;;5.53;;
13969;SDS011;7057;49.984;8.404;2022-09-13T00:59:23;7.87;;;5.50;;
13969;SDS011;7057;49.984;8.404;2022-09-13T01:01:53;9.27;;;5.37;;
13969;SDS011;7057;49.984;8.404;2022-09-13T01:04:23;9.57;;;5.73;;
13969;SDS011;7057;49.984;8.404;2022-09-13T01:06:53;7.73;;;5.80;;
13969;SDS011;7057;49.984;8.404;2022-09-13T01:09:24;9.13;;;5.90;;
13969;SDS011;7057;49.984;8.404;2022-09-13T01:11:54;9.20;;;5.80;;
13969;SDS011;7057;49.984;8.404;2022-09-13T01:14:28;8.73;;;6.10;;
13969;SDS011;7057;49.984;8.404;2022-09-13T01:16:57;8.07;;;6.37;;
13969;SDS011;7057;49.984;8.404;2022-09-13T01:19:24;7.30;;;5.47;;
13969;SDS011;7057;49.984;8.404;2022-09-13T01:22:09;7.47;;;5.83;;
13969;SDS011;7057;49.984;8.404;2022-09-13T01:25:11;9.07;;;6.67;;
13969;SDS011;7057;49.984;8.404;2022-09-13T01:28:15;9.53;;;5.57;;
13969;SDS011;7057;49.984;8.404;2022-09-13T01:31:05;7.17;;;6.20;;
13969;SDS011;7057;49.984;8.404;2022-09-13T01:33:40;8.70;;;6.50;;
13969;SDS011;7057;49.984;8.404;2022-09-13T01:36:20;8.37;;;6.07;;
13969;SDS011;7057;49.984;8.404;2022-09-13T01:39:08;10.00;;;6.33;;
13969;SDS011;7057;49.984;8.404;2022-09-13T01:41:45;7.40;;;6.10;;
13969;SDS011;7057;49.984;8.404;2022-09-13T01:44:26;10.93;;;6.00;;
13969;SDS011;7057;49.984;8.404;2022-09-13T01:47:04;7.87;;;5.93;;
13969;SDS011;7057;49.984;8.404;2022-09-13T01:49:38;9.53;;;6.23;;
13969;SDS011;7057;49.984;8.404;2022-09-13T01:52:15;6.90;;;5.97;;
13969;SDS011;7057;49.984;8.404;2022-09-13T01:55:00;7.50;;;6.30;;
13969;SDS011;7057;49.984;8.404;2022-09-13T01:57:34;8.60;;;6.10;;
13969;SDS011;7057;49.984;8.404;2022-09-13T02:00:10;9.17;;;6.63;;
13969;SDS011;7057;49.984;8.404;2022-09-13T02:02:41;8.57;;;6.50;;
13969;SDS011;7057;49.984;8.404;2022-09-13T02:05:13;11.53;;;6.23;;
13969;SDS011;7057;49.984;8.404;2022-09-13T02:07:45;8.07;;;6.77;;
13969;SDS011;7057;49.984;8.404;2022-09-13T02:10:24;8.43;;;6.70;;
13969;SDS011;7057;49.984;8.404;2022-09-13T02:12:55;8.20;;;6.20;;
13969;SDS011;7057;49.984;8.404;2022-09-13T02:15:25;9.67;;;6.77;;
13969;SDS011;7057;49.984;8.404;2022-09-13T02:17:58;11.27;;;6.67;;
13969;SDS011;7057;49.984;8.404;2022-09-13T02:20:32;9.47;;;6.47;;
13969;SDS011;7057;49.984;8.404;2022-09-13T02:23:02;9.03;;;7.07;;
13969;SDS011;7057;49.984;8.404;2022-09-13T02:25:35;8.73;;;6.33;;
13969;SDS011;7057;49.984;8.404;2022-09-13T02:28:05;9.17;;;6.83;;
13969;SDS011;7057;49.984;8.404;2022-09-13T02:30:36;10.10;;;6.80;;
13969;SDS011;7057;49.984;8.404;2022-09-13T02:33:09;8.93;;;6.67;;
13969;SDS011;7057;49.984;8.404;2022-09-13T02:35:39;8.00;;;6.50;;
13969;SDS011;7057;49.984;8.404;2022-09-13T02:38:11;10.23;;;6.97;;
13969;SDS011;7057;49.984;8.404;2022-09-13T02:40:54;9.43;;;7.63;;
13969;SDS011;7057;49.984;8.404;2022-09-13T02:43:26;10.07;;;7.40;;
13969;SDS011;7057;49.984;8.404;2022-09-13T02:46:01;12.73;;;7.47;;
13969;SDS011;7057;49.984;8.404;2022-09-13T02:48:43;12.33;;;7.07;;
13969;SDS011;7057;49.984;8.404;2022-09-13T02:51:16;10.20;;;7.03;;
13969;SDS011;7057;49.984;8.404;2022-09-13T02:53:50;11.90;;;7.10;;
13969;SDS011;7057;49.984;8.404;2022-09-13T02:56:23;9.13;;;7.20;;
13969;SDS011;7057;49.984;8.404;2022-09-13T02:59:00;9.03;;;6.87;;
13969;SDS011;7057;49.984;8.404;2022-09-13T03:01:31;9.67;;;6.77;;
13969;SDS011;7057;49.984;8.404;2022-09-13T03:04:02;8.43;;;7.13;;
13969;SDS011;7057;49.984;8.404;2022-09-13T03:06:29;9.30;;;6.80;;
13969;SDS011;7057;49.984;8.404;2022-09-13T03:08:57;9.80;;;7.17;;
13969;SDS011;7057;49.984;8.404;2022-09-13T03:11:30;10.83;;;6.50;;
13969;SDS011;7057;49.984;8.404;2022-09-13T03:14:19;9.77;;;7.00;;
13969;SDS011;7057;49.984;8.404;2022-09-13T03:17:01;10.17;;;6.87;;
13969;SDS011;7057;49.984;8.404;2022-09-13T03:25:22;9.97;;;6.37;;
13969;SDS011;7057;49.984;8.404;2022-09-13T03:27:58;8.17;;;6.13;;
13969;SDS011;7057;49.984;8.404;2022-09-13T03:30:33;10.17;;;7.13;;
13969;SDS011;7057;49.984;8.404;2022-09-13T03:33:03;8.97;;;6.60;;
13969;SDS011;7057;49.984;8.404;2022-09-13T03:35:38;12.97;;;6.57;;
13969;SDS011;7057;49.984;8.404;2022-09-13T03:38:09;9.60;;;6.60;;
13969;SDS011;7057;49.984;8.404;2022-09-13T03:40:39;8.70;;;7.00;;
13969;SDS011;7057;49.984;8.404;2022-09-13T03:43:10;9.33;;;6.83;;
13969;SDS011;7057;49.984;8.404;2022-09-13T03:45:41;10.00;;;7.50;;
13969;SDS011;7057;49.984;8.404;2022-09-13T03:48:12;8.83;;;5.90;;
13969;SDS011;7057;49.984;8.404;2022-09-13T03:50:41;8.77;;;6.60;;
13969;SDS011;7057;49.984;8.404;2022-09-13T03:53:11;8.63;;;6.70;;
13969;SDS011;7057;49.984;8.404;2022-09-13T03:55:43;8.50;;;6.73;;
13969;SDS011;7057;49.984;8.404;2022-09-13T03:58:10;8.53;;;6.80;;
13969;SDS011;7057;49.984;8.404;2022-09-13T04:00:38;7.90;;;6.97;;
13969;SDS011;7057;49.984;8.404;2022-09-13T04:03:05;7.33;;;6.03;;
13969;SDS011;7057;49.984;8.404;2022-09-13T04:05:34;9.47;;;7.00;;
13969;SDS011;7057;49.984;8.404;2022-09-13T04:08:03;9.33;;;6.73;;
13969;SDS011;7057;49.984;8.404;2022-09-13T04:10:32;8.83;;;6.70;;
13969;SDS011;7057;49.984;8.404;2022-09-13T04:13:00;7.87;;;6.40;;
13969;SDS011;7057;49.984;8.404;2022-09-13T04:15:27;9.80;;;6.80;;
13969;SDS011;7057;49.984;8.404;2022-09-13T04:17:55;8.67;;;6.67;;
13969;SDS011;7057;49.984;8.404;2022-09-13T04:20:23;7.83;;;6.60;;
13969;SDS011;7057;49.984;8.404;2022-09-13T04:22:50;8.13;;;6.10;;
13969;SDS011;7057;49.984;8.404;2022-09-13T04:25:19;8.17;;;6.37;;
13969;SDS011;7057;49.984;8.404;2022-09-13T04:27:47;8.77;;;6.93;;
13969;SDS011;7057;49.984;8.404;2022-09-13T04:30:14;9.87;;;6.87;;
13969;SDS011;7057;49.984;8.404;2022-09-13T04:32:42;10.40;;;7.03;;
13969;SDS011;7057;49.984;8.404;2022-09-13T04:35:10;9.20;;;7.13;;
13969;SDS011;7057;49.984;8.404;2022-09-13T04:37:37;8.33;;;6.30;;
13969;SDS011;7057;49.984;8.404;2022-09-13T04:40:04;8.40;;;6.13;;
13969;SDS011;7057;49.984;8.404;2022-09-13T04:42:34;8.57;;;6.30;;
13969;SDS011;7057;49.984;8.404;2022-09-13T04:45:01;8.07;;;6.80;;
13969;SDS011;7057;49.984;8.404;2022-09-13T04:47:29;7.70;;;6.60;;
13969;SDS011;7057;49.984;8.404;2022-09-13T04:49:56;8.60;;;6.70;;
13969;SDS011;7057;49.984;8.404;2022-09-13T04:52:24;9.50;;;6.53;;
13969;SDS011;7057;49.984;8.404;2022-09-13T04:54:51;12.10;;;8.00;;
13969;SDS011;7057;49.984;8.404;2022-09-13T04:57:18;10.63;;;6.57;;
13969;SDS011;7057;49.984;8.404;2022-09-13T04:59:46;14.63;;;7.33;;
13969;SDS011;7057;49.984;8.404;2022-09-13T05:02:13;8.73;;;6.93;;
13969;SDS011;7057;49.984;8.404;2022-09-13T05:04:41;9.43;;;6.90;;
13969;SDS011;7057;49.984;8.404;2022-09-13T05:07:08;10.23;;;6.90;;
13969;SDS011;7057;49.984;8.404;2022-09-13T05:09:35;12.03;;;7.60;;
13969;SDS011;7057;49.984;8.404;2022-09-13T05:12:02;9.10;;;6.77;;
13969;SDS011;7057;49.984;8.404;2022-09-13T05:14:30;8.83;;;6.30;;
13969;SDS011;7057;49.984;8.404;2022-09-13T05:16:58;12.20;;;7.10;;
13969;SDS011;7057;49.984;8.404;2022-09-13T05:19:25;7.93;;;6.93;;
13969;SDS011;7057;49.984;8.404;2022-09-13T05:21:52;8.03;;;6.37;;
13969;SDS011;7057;49.984;8.404;2022-09-13T05:24:19;8.67;;;6.10;;
13969;SDS011;7057;49.984;8.404;2022-09-13T05:26:47;9.37;;;6.93;;
13969;SDS011;7057;49.984;8.404;2022-09-13T05:29:14;9.73;;;7.20;;
13969;SDS011;7057;49.984;8.404;2022-09-13T05:31:41;11.33;;;7.23;;
13969;SDS011;7057;49.984;8.404;2022-09-13T05:34:11;11.30;;;6.93;;
13969;SDS011;7057;49.984;8.404;2022-09-13T05:36:40;9.30;;;6.77;;
13969;SDS011;7057;49.984;8.404;2022-09-13T05:39:09;10.27;;;7.57;;
13969;SDS011;7057;49.984;8.404;2022-09-13T05:41:39;10.20;;;6.53;;
13969;SDS011;7057;49.984;8.404;2022-09-13T05:44:06;12.43;;;7.67;;
13969;SDS011;7057;49.984;8.404;2022-09-13T05:46:33;10.83;;;7.63;;
13969;SDS011;7057;49.984;8.404;2022-09-13T05:49:00;14.53;;;8.30;;
13969;SDS011;7057;49.984;8.404;2022-09-13T05:51:29;10.67;;;7.97;;
13969;SDS011;7057;49.984;8.404;2022-09-13T05:53:56;10.83;;;8.30;;
13969;SDS011;7057;49.984;8.404;2022-09-13T05:56:24;9.50;;;6.77;;
13969;SDS011;7057;49.984;8.404;2022-09-13T05:58:53;10.00;;;7.60;;
13969;SDS011;7057;49.984;8.404;2022-09-13T06:01:22;10.00;;;7.90;;
13969;SDS011;7057;49.984;8.404;2022-09-13T06:03:51;9.97;;;7.67;;
13969;SDS011;7057;49.984;8.404;2022-09-13T06:06:19;10.30;;;7.83;;
13969;SDS011;7057;49.984;8.404;2022-09-13T06:08:50;13.73;;;8.53;;
13969;SDS011;7057;49.984;8.404;2022-09-13T06:11:18;10.40;;;7.90;;
13969;SDS011;7057;49.984;8.404;2022-09-13T06:13:45;10.43;;;8.03;;
13969;SDS011;7057;49.984;8.404;2022-09-13T06:16:13;10.60;;;7.73;;
13969;SDS011;7057;49.984;8.404;2022-09-13T06:18:41;8.33;;;7.43;;
13969;SDS011;7057;49.984;8.404;2022-09-13T06:21:09;10.00;;;7.93;;
13969;SDS011;7057;49.984;8.404;2022-09-13T06:23:42;10.73;;;8.57;;
13969;SDS011;7057;49.984;8.404;2022-09-13T06:26:11;12.23;;;8.03;;
13969;SDS011;7057;49.984;8.404;2022-09-13T06:28:40;10.93;;;8.03;;
13969;SDS011;7057;49.984;8.404;2022-09-13T06:31:08;13.67;;;8.53;;
13969;SDS011;7057;49.984;8.404;2022-09-13T06:33:37;13.53;;;8.13;;
13969;SDS011;7057;49.984;8.404;2022-09-13T06:36:06;10.10;;;7.43;;
13969;SDS011;7057;49.984;8.404;2022-09-13T06:38:34;15.43;;;9.17;;
13969;SDS011;7057;49.984;8.404;2022-09-13T06:41:02;13.13;;;7.83;;
13969;SDS011;7057;49.984;8.404;2022-09-13T06:43:32;10.87;;;8.47;;
13969;SDS011;7057;49.984;8.404;2022-09-13T06:46:00;11.63;;;8.40;;
13969;SDS011;7057;49.984;8.404;2022-09-13T06:48:31;11.73;;;8.17;;
13969;SDS011;7057;49.984;8.404;2022-09-13T06:50:59;12.33;;;8.03;;
13969;SDS011;7057;49.984;8.404;2022-09-13T06:53:27;13.67;;;8.80;;
13969;SDS011;7057;49.984;8.404;2022-09-13T06:56:01;12.07;;;8.50;;
13969;SDS011;7057;49.984;8.404;2022-09-13T06:58:29;16.23;;;9.27;;
13969;SDS011;7057;49.984;8.404;2022-09-13T07:01:05;13.97;;;8.20;;
13969;SDS011;7057;49.984;8.404;2022-09-13T07:03:35;9.97;;;7.93;;
13969;SDS011;7057;49.984;8.404;2022-09-13T07:06:06;11.30;;;8.43;;
13969;SDS011;7057;49.984;8.404;2022-09-13T07:08:38;10.70;;;8.47;;
13969;SDS011;7057;49.984;8.404;2022-09-13T07:11:05;9.43;;;8.23;;
13969;SDS011;7057;49.984;8.404;2022-09-13T07:13:33;9.13;;;7.97;;
13969;SDS011;7057;49.984;8.404;2022-09-13T07:16:01;11.17;;;8.23;;
13969;SDS011;7057;49.984;8.404;2022-09-13T07:18:30;13.33;;;7.67;;
13969;SDS011;7057;49.984;8.404;2022-09-13T07:20:57;11.33;;;8.63;;
13969;SDS011;7057;49.984;8.404;2022-09-13T07:23:26;12.63;;;8.67;;
13969;SDS011;7057;49.984;8.404;2022-09-13T07:25:54;11.77;;;8.00;;
13969;SDS011;7057;49.984;8.404;2022-09-13T07:28:27;12.63;;;8.33;;
13969;SDS011;7057;49.984;8.404;2022-09-13T07:30:56;13.37;;;8.70;;
13969;SDS011;7057;49.984;8.404;2022-09-13T07:33:29;12.33;;;8.67;;
13969;SDS011;7057;49.984;8.404;2022-09-13T07:35:57;14.23;;;9.23;;
13969;SDS011;7057;49.984;8.404;2022-09-13T07:38:26;10.10;;;8.83;;
13969;SDS011;7057;49.984;8.404;2022-09-13T07:40:53;10.77;;;8.93;;
13969;SDS011;7057;49.984;8.404;2022-09-13T07:43:23;11.27;;;8.27;;
13969;SDS011;7057;49.984;8.404;2022-09-13T07:45:57;11.40;;;9.23;;
13969;SDS011;7057;49.984;8.404;2022-09-13T07:48:26;10.90;;;9.27;;
13969;SDS011;7057;49.984;8.404;2022-09-13T07:50:57;12.13;;;9.13;;
13969;SDS011;7057;49.984;8.404;2022-09-13T07:53:26;14.40;;;9.33;;
13969;SDS011;7057;49.984;8.404;2022-09-13T07:55:53;12.90;;;9.17;;
13969;SDS011;7057;49.984;8.404;2022-09-13T07:58:25;13.17;;;8.87;;
13969;SDS011;7057;49.984;8.404;2022-09-13T08:00:52;10.40;;;8.67;;
13969;SDS011;7057;49.984;8.404;2022-09-13T08:03:20;15.00;;;9.57;;
13969;SDS011;7057;49.984;8.404;2022-09-13T08:05:47;12.37;;;10.07;;
13969;SDS011;7057;49.984;8.404;2022-09-13T08:08:14;13.43;;;9.30;;
13969;SDS011;7057;49.984;8.404;2022-09-13T08:10:41;13.13;;;9.40;;
13969;SDS011;7057;49.984;8.404;2022-09-13T08:13:09;12.87;;;8.80;;
13969;SDS011;7057;49.984;8.404;2022-09-13T08:15:36;11.03;;;8.20;;
13969;SDS011;7057;49.984;8.404;2022-09-13T08:18:04;10.63;;;8.40;;
13969;SDS011;7057;49.984;8.404;2022-09-13T08:20:35;9.50;;;8.07;;
13969;SDS011;7057;49.984;8.404;2022-09-13T08:23:03;9.43;;;7.40;;
13969;SDS011;7057;49.984;8.404;2022-09-13T08:25:31;10.07;;;7.43;;
13969;SDS011;7057;49.984;8.404;2022-09-13T08:27:59;9.00;;;6.83;;
13969;SDS011;7057;49.984;8.404;2022-09-13T08:30:26;8.77;;;6.43;;
13969;SDS011;7057;49.984;8.404;2022-09-13T08:32:57;11.23;;;7.63;;
13969;SDS011;7057;49.984;8.404;2022-09-13T08:35:25;9.03;;;7.00;;
13969;SDS011;7057;49.984;8.404;2022-09-13T08:37:54;10.07;;;8.13;;
13969;SDS011;7057;49.984;8.404;2022-09-13T08:40:21;10.87;;;7.87;;
13969;SDS011;7057;49.984;8.404;2022-09-13T08:42:53;9.00;;;8.07;;
13969;SDS011;7057;49.984;8.404;2022-09-13T08:45:26;11.77;;;8.50;;
13969;SDS011;7057;49.984;8.404;2022-09-13T08:47:55;8.80;;;7.73;;
13969;SDS011;7057;49.984;8.404;2022-09-13T08:50:25;8.93;;;7.63;;
13969;SDS011;7057;49.984;8.404;2022-09-13T08:55:50;10.13;;;7.93;;
13969;SDS011;7057;49.984;8.404;2022-09-13T08:58:27;10.30;;;7.30;;
13969;SDS011;7057;49.984;8.404;2022-09-13T09:01:03;8.47;;;6.87;;
13969;SDS011;7057;49.984;8.404;2022-09-13T09:03:37;10.27;;;8.50;;
13969;SDS011;7057;49.984;8.404;2022-09-13T09:06:10;11.47;;;8.07;;
13969;SDS011;7057;49.984;8.404;2022-09-13T09:08:42;10.20;;;8.40;;
13969;SDS011;7057;49.984;8.404;2022-09-13T09:11:19;12.07;;;8.60;;
13969;SDS011;7057;49.984;8.404;2022-09-13T09:13:54;13.03;;;8.63;;
13969;SDS011;7057;49.984;8.404;2022-09-13T09:16:28;12.27;;;9.20;;
13969;SDS011;7057;49.984;8.404;2022-09-13T09:19:04;11.47;;;8.30;;
13969;SDS011;7057;49.984;8.404;2022-09-13T09:21:39;11.13;;;9.40;;
13969;SDS011;7057;49.984;8.404;2022-09-13T09:24:09;12.70;;;9.43;;
13969;SDS011;7057;49.984;8.404;2022-09-13T09:26:41;15.60;;;9.13;;
13969;SDS011;7057;49.984;8.404;2022-09-13T09:29:10;13.87;;;8.47;;
13969;SDS011;7057;49.984;8.404;2022-09-13T09:31:43;13.07;;;9.33;;
13969;SDS011;7057;49.984;8.404;2022-09-13T09:34:18;10.43;;;8.37;;
13969;SDS011;7057;49.984;8.404;2022-09-13T09:36:54;14.87;;;8.67;;
13969;SDS011;7057;49.984;8.404;2022-09-13T09:39:29;10.53;;;9.10;;
13969;SDS011;7057;49.984;8.404;2022-09-13T09:42:03;13.00;;;8.97;;
13969;SDS011;7057;49.984;8.404;2022-09-13T09:44:31;13.07;;;9.33;;
13969;SDS011;7057;49.984;8.404;2022-09-13T09:46:59;12.33;;;9.63;;
13969;SDS011;7057;49.984;8.404;2022-09-13T09:49:32;11.70;;;8.70;;
13969;SDS011;7057;49.984;8.404;2022-09-13T09:52:22;12.57;;;9.00;;
13969;SDS011;7057;49.984;8.404;2022-09-13T09:54:58;11.07;;;8.77;;
13969;SDS011;7057;49.984;8.404;2022-09-13T10:00:19;12.77;;;8.73;;
13969;SDS011;7057;49.984;8.404;2022-09-13T10:02:48;12.97;;;8.77;;
13969;SDS011;7057;49.984;8.404;2022-09-13T10:05:18;13.57;;;9.03;;
13969;SDS011;7057;49.984;8.404;2022-09-13T10:07:52;13.47;;;9.00;;
13969;SDS011;7057;49.984;8.404;2022-09-13T10:10:24;13.67;;;10.23;;
13969;SDS011;7057;49.984;8.404;2022-09-13T10:12:57;13.83;;;9.27;;
13969;SDS011;7057;49.984;8.404;2022-09-13T10:15:25;14.70;;;8.93;;
13969;SDS011;7057;49.984;8.404;2022-09-13T10:18:02;13.47;;;9.87;;
13969;SDS011;7057;49.984;8.404;2022-09-13T10:20:31;18.63;;;10.17;;
13969;SDS011;7057;49.984;8.404;2022-09-13T10:23:09;12.60;;;9.70;;
13969;SDS011;7057;49.984;8.404;2022-09-13T10:25:58;13.43;;;9.40;;
13969;SDS011;7057;49.984;8.404;2022-09-13T10:28:28;14.13;;;10.63;;
13969;SDS011;7057;49.984;8.404;2022-09-13T10:30:58;13.73;;;9.70;;
13969;SDS011;7057;49.984;8.404;2022-09-13T10:33:30;12.10;;;9.20;;
13969;SDS011;7057;49.984;8.404;2022-09-13T10:36:01;12.47;;;9.40;;
13969;SDS011;7057;49.984;8.404;2022-09-13T10:38:31;13.43;;;9.07;;
13969;SDS011;7057;49.984;8.404;2022-09-13T10:41:03;12.83;;;9.90;;
13969;SDS011;7057;49.984;8.404;2022-09-13T10:43:32;12.57;;;9.80;;
13969;SDS011;7057;49.984;8.404;2022-09-13T10:46:02;14.93;;;9.73;;
13969;SDS011;7057;49.984;8.404;2022-09-13T10:48:42;13.07;;;9.57;;
13969;SDS011;7057;49.984;8.404;2022-09-13T10:51:17;12.47;;;9.83;;
13969;SDS011;7057;49.984;8.404;2022-09-13T10:54:05;12.87;;;10.20;;
13969;SDS011;7057;49.984;8.404;2022-09-13T10:56:35;14.73;;;10.33;;
13969;SDS011;7057;49.984;8.404;2022-09-13T10:59:13;13.60;;;10.00;;
13969;SDS011;7057;49.984;8.404;2022-09-13T11:01:43;13.63;;;10.37;;
13969;SDS011;7057;49.984;8.404;2022-09-13T11:04:28;13.33;;;9.73;;
13969;SDS011;7057;49.984;8.404;2022-09-13T11:07:15;12.97;;;10.13;;
13969;SDS011;7057;49.984;8.404;2022-09-13T11:09:57;15.73;;;11.73;;
13969;SDS011;7057;49.984;8.404;2022-09-13T11:12:33;17.00;;;10.60;;
13969;SDS011;7057;49.984;8.404;2022-09-13T11:15:09;11.90;;;9.90;;
13969;SDS011;7057;49.984;8.404;2022-09-13T11:17:54;11.07;;;9.70;;
13969;SDS011;7057;49.984;8.404;2022-09-13T11:20:56;12.63;;;10.07;;
13969;SDS011;7057;49.984;8.404;2022-09-13T11:23:38;14.13;;;10.40;;
13969;SDS011;7057;49.984;8.404;2022-09-13T11:26:23;15.43;;;11.10;;
13969;SDS011;7057;49.984;8.404;2022-09-13T11:29:12;11.83;;;10.00;;
13969;SDS011;7057;49.984;8.404;2022-09-13T11:31:53;12.73;;;9.77;;
13969;SDS011;7057;49.984;8.404;2022-09-13T11:34:32;17.47;;;12.20;;
13969;SDS011;7057;49.984;8.404;2022-09-13T11:37:11;15.70;;;10.97;;
13969;SDS011;7057;49.984;8.404;2022-09-13T11:39:50;13.33;;;9.83;;
13969;SDS011;7057;49.984;8.404;2022-09-13T11:42:31;13.93;;;10.60;;
13969;SDS011;7057;49.984;8.404;2022-09-13T11:45:17;11.83;;;9.90;;
13969;SDS011;7057;49.984;8.404;2022-09-13T11:50:39;13.27;;;11.30;;
13969;SDS011;7057;49.984;8.404;2022-09-13T11:53:21;15.97;;;11.63;;
13969;SDS011;7057;49.984;8.404;2022-09-13T11:56:15;14.53;;;10.03;;
13969;SDS011;7057;49.984;8.404;2022-09-13T11:58:47;14.67;;;11.13;;
13969;SDS011;7057;49.984;8.404;2022-09-13T12:01:20;13.60;;;10.77;;
13969;SDS011;7057;49.984;8.404;2022-09-13T12:03:53;13.13;;;10.03;;
13969;SDS011;7057;49.984;8.404;2022-09-13T12:06:26;13.93;;;10.67;;
13969;SDS011;7057;49.984;8.404;2022-09-13T12:08:58;13.70;;;10.20;;
13969;SDS011;7057;49.984;8.404;2022-09-13T12:11:30;12.67;;;10.23;;
13969;SDS011;7057;49.984;8.404;2022-09-13T12:14:01;14.70;;;10.10;;
13969;SDS011;7057;49.984;8.404;2022-09-13T12:16:33;12.60;;;10.27;;
13969;SDS011;7057;49.984;8.404;2022-09-13T12:19:04;14.87;;;10.47;;
13969;SDS011;7057;49.984;8.404;2022-09-13T12:21:38;14.03;;;10.33;;
13969;SDS011;7057;49.984;8.404;2022-09-13T12:24:11;13.60;;;9.90;;
13969;SDS011;7057;49.984;8.404;2022-09-13T12:26:43;13.60;;;9.47;;
13969;SDS011;7057;49.984;8.404;2022-09-13T12:29:14;15.23;;;10.57;;
13969;SDS011;7057;49.984;8.404;2022-09-13T12:31:46;13.27;;;10.10;;
13969;SDS011;7057;49.984;8.404;2022-09-13T12:34:14;15.53;;;10.80;;
13969;SDS011;7057;49.984;8.404;2022-09-13T12:36:50;14.23;;;10.53;;
13969;SDS011;7057;49.984;8.404;2022-09-13T12:39:41;12.73;;;9.93;;
13969;SDS011;7057;49.984;8.404;2022-09-13T12:42:26;12.23;;;9.87;;
13969;SDS011;7057;49.984;8.404;2022-09-13T12:48:18;14.47;;;9.10;;
13969;SDS011;7057;49.984;8.404;2022-09-13T12:50:59;13.40;;;10.23;;
13969;SDS011;7057;49.984;8.404;2022-09-13T12:53:36;11.07;;;9.37;;
13969;SDS011;7057;49.984;8.404;2022-09-13T12:56:25;11.40;;;9.47;;
13969;SDS011;7057;49.984;8.404;2022-09-13T12:59:24;13.37;;;9.13;;
13969;SDS011;7057;49.984;8.404;2022-09-13T13:02:01;11.83;;;9.30;;
13969;SDS011;7057;49.984;8.404;2022-09-13T13:04:47;14.53;;;9.77;;
13969;SDS011;7057;49.984;8.404;2022-09-13T13:07:19;12.10;;;9.90;;
13969;SDS011;7057;49.984;8.404;2022-09-13T13:09:49;14.07;;;10.30;;
13969;SDS011;7057;49.984;8.404;2022-09-13T13:12:25;11.00;;;8.97;;
13969;SDS011;7057;49.984;8.404;2022-09-13T13:14:55;10.70;;;9.23;;
13969;SDS011;7057;49.984;8.404;2022-09-13T13:17:36;13.57;;;9.47;;
13969;SDS011;7057;49.984;8.404;2022-09-13T13:23:19;11.33;;;8.80;;
13969;SDS011;7057;49.984;8.404;2022-09-13T13:29:13;10.83;;;8.43;;
13969;SDS011;7057;49.984;8.404;2022-09-13T13:31:46;11.07;;;8.00;;
13969;SDS011;7057;49.984;8.404;2022-09-13T13:34:38;10.50;;;8.73;;
13969;SDS011;7057;49.984;8.404;2022-09-13T13:42:48;12.47;;;8.60;;
13969;SDS011;7057;49.984;8.404;2022-09-13T13:45:19;12.97;;;8.90;;
13969;SDS011;7057;49.984;8.404;2022-09-13T13:50:32;14.70;;;8.40;;
13969;SDS011;7057;49.984;8.404;2022-09-13T13:55:48;10.40;;;8.70;;
13969;SDS011;7057;49.984;8.404;2022-09-13T13:58:36;9.63;;;7.97;;
13969;SDS011;7057;49.984;8.404;2022-09-13T14:01:13;10.80;;;8.57;;
13969;SDS011;7057;49.984;8.404;2022-09-13T14:03:54;8.57;;;7.67;;
13969;SDS011;7057;49.984;8.404;2022-09-13T14:06:35;11.53;;;7.63;;
13969;SDS011;7057;49.984;8.404;2022-09-13T14:09:16;12.93;;;9.03;;
13969;SDS011;7057;49.984;8.404;2022-09-13T14:11:57;9.43;;;8.20;;
13969;SDS011;7057;49.984;8.404;2022-09-13T14:14:46;10.67;;;8.60;;
13969;SDS011;7057;49.984;8.404;2022-09-13T14:17:43;9.50;;;7.53;;
13969;SDS011;7057;49.984;8.404;2022-09-13T14:20:27;11.37;;;8.43;;
13969;SDS011;7057;49.984;8.404;2022-09-13T14:23:09;8.90;;;8.00;;
13969;SDS011;7057;49.984;8.404;2022-09-13T14:25:38;9.37;;;7.73;;
13969;SDS011;7057;49.984;8.404;2022-09-13T14:28:05;10.83;;;8.23;;
13969;SDS011;7057;49.984;8.404;2022-09-13T14:30:34;11.07;;;8.00;;
13969;SDS011;7057;49.984;8.404;2022-09-13T14:33:03;11.37;;;7.80;;
13969;SDS011;7057;49.984;8.404;2022-09-13T14:35:31;12.67;;;7.73;;
13969;SDS011;7057;49.984;8.404;2022-09-13T14:38:10;9.30;;;7.67;;
13969;SDS011;7057;49.984;8.404;2022-09-13T14:40:47;9.47;;;7.57;;
13969;SDS011;7057;49.984;8.404;2022-09-13T14:43:15;10.87;;;8.00;;
13969;SDS011;7057;49.984;8.404;2022-09-13T14:45:44;8.60;;;6.97;;
13969;SDS011;7057;49.984;8.404;2022-09-13T14:48:15;12.27;;;8.37;;
13969;SDS011;7057;49.984;8.404;2022-09-13T14:50:47;11.87;;;8.00;;
13969;SDS011;7057;49.984;8.404;2022-09-13T14:53:19;9.63;;;7.03;;
13969;SDS011;7057;49.984;8.404;2022-09-13T14:55:51;9.23;;;8.00;;
13969;SDS011;7057;49.984;8.404;2022-09-13T14:58:21;11.80;;;8.33;;
13969;SDS011;7057;49.984;8.404;2022-09-13T15:00:54;10.07;;;7.37;;
13969;SDS011;7057;49.984;8.404;2022-09-13T15:03:25;11.50;;;8.43;;
13969;SDS011;7057;49.984;8.404;2022-09-13T15:05:54;9.07;;;7.87;;
13969;SDS011;7057;49.984;8.404;2022-09-13T15:08:27;8.97;;;7.40;;
13969;SDS011;7057;49.984;8.404;2022-09-13T15:11:12;9.17;;;7.47;;
13969;SDS011;7057;49.984;8.404;2022-09-13T15:13:42;8.97;;;8.03;;
13969;SDS011;7057;49.984;8.404;2022-09-13T15:16:25;12.03;;;7.47;;
13969;SDS011;7057;49.984;8.404;2022-09-13T15:21:41;8.23;;;7.07;;
13969;SDS011;7057;49.984;8.404;2022-09-13T15:24:13;10.97;;;7.60;;
13969;SDS011;7057;49.984;8.404;2022-09-13T15:26:47;10.20;;;7.60;;
13969;SDS011;7057;49.984;8.404;2022-09-13T15:29:26;12.73;;;9.20;;
13969;SDS011;7057;49.984;8.404;2022-09-13T15:31:59;11.80;;;8.30;;
13969;SDS011;7057;49.984;8.404;2022-09-13T15:34:27;10.20;;;7.63;;
13969;SDS011;7057;49.984;8.404;2022-09-13T15:37:01;13.17;;;7.87;;
13969;SDS011;7057;49.984;8.404;2022-09-13T15:39:43;12.37;;;8.40;;
13969;SDS011;7057;49.984;8.404;2022-09-13T15:42:12;10.93;;;8.00;;
13969;SDS011;7057;49.984;8.404;2022-09-13T15:44:40;9.27;;;8.00;;
13969;SDS011;7057;49.984;8.404;2022-09-13T15:47:09;10.43;;;8.67;;
13969;SDS011;7057;49.984;8.404;2022-09-13T15:49:38;8.03;;;6.90;;
13969;SDS011;7057;49.984;8.404;2022-09-13T15:52:06;9.83;;;7.23;;
13969;SDS011;7057;49.984;8.404;2022-09-13T15:54:35;8.77;;;7.27;;
13969;SDS011;7057;49.984;8.404;2022-09-13T15:57:05;8.67;;;7.77;;
13969;SDS011;7057;49.984;8.404;2022-09-13T15:59:35;9.90;;;8.03;;
13969;SDS011;7057;49.984;8.404;2022-09-13T16:02:11;10.77;;;8.20;;